Time;durP1;ratioP1;P1;durP2;ratioP2;P2;SDS_P1;SDS_P2;PMS_P1;PMS_P2;Temp;Humidity;BMP_temperature;BMP_pressure;BME280_temperature;BME280_humidity;BME280_pressure;Samples;Min_cycle;Max_cycle;Signal;HPM_P1;HPM_P2
2022/02/06 00:02:26;;;;;;;;;;;;;;;9.00;67.66;101255.75;5009738;28;102189;-48
2022/02/06 00:04:52;;;;;;;;;;;;;;;9.00;67.77;101262.00;4997217;28;102605;-48
2022/02/06 00:07:18;;;;;;;;;;;;;;;9.01;67.44;101268.25;5010561;28;102300;-48
2022/02/06 00:09:46;;;;;;;;;;;;;;;9.00;66.77;101261.19;4999698;28;103318;-52
2022/02/06 00:12:12;;;;;;;;;;;;;;;9.00;66.91;101272.03;5013833;28;102315;-49
2022/02/06 00:14:40;;;;;;;;;;;;;;;9.00;67.21;101263.91;5000336;27;102332;-48
2022/02/06 00:17:07;;;;;;;;;;;;;;;9.00;66.72;101266.63;5009631;28;102801;-48
2022/02/06 00:19:33;;;;;;;;;;;;;;;9.00;67.03;101278.28;5010535;28;104057;-48
2022/02/06 00:22:02;;;;;;;;;;;;;;;9.01;67.39;101270.97;5011130;27;102082;-49
2022/02/06 00:24:52;;;;;;;;;;;;;;;9.01;66.71;101268.25;5008497;27;102922;-48
2022/02/06 00:27:34;;;;;;;;;;;;;;;9.00;66.98;101272.03;5006556;27;102392;-48
2022/02/06 00:32:48;;;;;;;;;;;;;;;9.00;67.48;101272.03;4998786;27;107128;-49
2022/02/06 00:35:50;;;;;;;;;;;;;;;9.01;67.26;101274.50;5005632;28;102640;-48
2022/02/06 00:39:01;;;;;;;;;;;;;;;9.00;67.31;101266.63;5010463;28;102530;-47
2022/02/06 00:41:15;;;;;;;;;;;;;;;9.01;66.72;101270.97;5002477;28;104009;-48
2022/02/06 00:43:42;;;;;;;;;;;;;;;9.01;66.81;101268.25;5009201;27;102110;-49
2022/02/06 00:46:12;;;;;;;;;;;;;;;9.01;66.88;101268.25;5008213;27;102628;-48
2022/02/06 00:48:42;;;;;;;;;;;;;;;9.01;67.16;101281.81;5008817;28;102717;-48
2022/02/06 00:51:26;;;;;;;;;;;;;;;9.00;66.99;101280.19;5006435;28;103963;-48
2022/02/06 00:53:52;;;;;;;;;;;;;;;9.01;67.22;101284.53;5011068;28;102053;-49
2022/02/06 00:56:18;;;;;;;;;;;;;;;9.01;66.72;101279.94;5013329;27;102225;-49
2022/02/06 00:58:44;;;;;;;;;;;;;;;9.01;66.85;101279.13;4995304;28;102814;-48
2022/02/06 01:01:12;;;;;;;;;;;;;;;9.00;66.92;101275.59;5008696;28;104064;-49
2022/02/06 01:03:38;;;;;;;;;;;;;;;9.00;67.75;101286.44;5005907;27;102523;-48
2022/02/06 01:06:04;;;;;;;;;;;;;;;9.00;67.23;101282.91;5008140;28;102654;-48
2022/02/06 01:08:30;;;;;;;;;;;;;;;9.01;66.90;101279.13;5009235;28;102609;-48
2022/02/06 01:10:56;;;;;;;;;;;;;;;9.00;67.24;101275.59;5003009;27;103897;-48
2022/02/06 01:13:29;;;;;;;;;;;;;;;9.01;67.24;101279.13;5005421;28;104359;-50
2022/02/06 01:16:03;;;;;;;;;;;;;;;9.01;66.71;101276.41;5007385;28;102589;-48
2022/02/06 01:18:39;;;;;;;;;;;;;;;9.00;67.18;101277.47;5008951;28;102251;-48
2022/02/06 01:21:18;;;;;;;;;;;;;;;8.99;67.29;101282.09;5000922;28;104444;-47
2022/02/06 01:23:54;;;;;;;;;;;;;;;9.01;67.17;101279.13;5006383;27;102469;-48
2022/02/06 01:34:07;;;;;;;;;;;;;;;9.00;67.76;101275.59;5006650;28;102690;-48
2022/02/06 01:36:47;;;;;;;;;;;;;;;9.00;66.93;101280.19;5007526;28;102465;-48
2022/02/06 01:41:46;;;;;;;;;;;;;;;9.00;67.04;101286.44;5007448;28;103821;-48
2022/02/06 01:44:23;;;;;;;;;;;;;;;8.99;67.29;101276.66;5001231;27;102517;-48
2022/02/06 02:03:09;;;;;;;;;;;;;;;9.01;66.79;101298.13;5006096;28;103867;-49
2022/02/06 02:06:18;;;;;;;;;;;;;;;9.00;67.56;101293.75;5008017;28;102441;-49
2022/02/06 02:11:50;;;;;;;;;;;;;;;8.99;67.21;101297.56;5005512;27;102341;-49
2022/02/06 02:47:11;;;;;;;;;;;;;;;9.00;67.86;101326.34;5006151;28;104007;-48
2022/02/06 02:49:37;;;;;;;;;;;;;;;9.00;67.51;101329.06;5005686;28;102784;-48
2022/02/06 02:52:09;;;;;;;;;;;;;;;9.00;67.46;101334.50;5002870;28;102478;-48
2022/02/06 02:54:38;;;;;;;;;;;;;;;9.00;67.19;101334.50;5011027;27;102233;-48
2022/02/06 02:57:19;;;;;;;;;;;;;;;8.99;66.92;101346.44;5008248;27;103700;-48
2022/02/06 03:02:18;;;;;;;;;;;;;;;8.99;67.11;101346.44;5010648;27;102363;-50
2022/02/06 03:04:50;;;;;;;;;;;;;;;9.01;67.08;101357.84;5006203;27;102782;-51
2022/02/06 03:07:16;;;;;;;;;;;;;;;9.00;67.07;101358.91;5004332;27;103900;-48
2022/02/06 03:09:45;;;;;;;;;;;;;;;8.99;67.39;101354.56;5009570;28;102179;-49
2022/02/06 03:12:14;;;;;;;;;;;;;;;9.00;66.99;101353.50;5006947;27;102802;-49
2022/02/06 03:14:46;;;;;;;;;;;;;;;8.99;66.68;101351.84;5004632;27;103991;-48
2022/02/06 03:17:21;;;;;;;;;;;;;;;8.99;67.12;101346.44;5005785;27;103957;-48
2022/02/06 03:19:54;;;;;;;;;;;;;;;9.00;67.52;101342.63;5001117;28;102451;-48
2022/02/06 03:22:24;;;;;;;;;;;;;;;8.99;67.00;101343.72;5004437;27;102468;-48
2022/02/06 03:24:56;;;;;;;;;;;;;;;9.00;67.87;101348.06;4997905;28;102370;-48
2022/02/06 03:27:22;;;;;;;;;;;;;;;9.00;67.76;101342.63;5007472;27;103865;-49
2022/02/06 03:29:48;;;;;;;;;;;;;;;9.00;67.44;101358.91;5009433;28;102320;-47
2022/02/06 03:32:14;;;;;;;;;;;;;;;9.00;67.03;101358.91;5009666;27;102547;-48
2022/02/06 03:34:40;;;;;;;;;;;;;;;9.00;67.38;101364.34;5008621;27;102290;-48
2022/02/06 03:37:06;;;;;;;;;;;;;;;8.99;67.55;101376.28;5008538;28;103904;-48
2022/02/06 03:39:36;;;;;;;;;;;;;;;9.00;67.04;101381.47;5006943;27;102388;-48
2022/02/06 03:42:11;;;;;;;;;;;;;;;9.00;67.19;101369.78;5008146;27;102665;-49
2022/02/06 03:47:17;;;;;;;;;;;;;;;8.99;67.45;101363.53;5009021;27;103855;-49
2022/02/06 03:50:00;;;;;;;;;;;;;;;8.99;66.87;101363.53;4998188;27;102260;-48
2022/02/06 03:52:42;;;;;;;;;;;;;;;9.00;67.24;101369.78;5007087;27;102179;-49
2022/02/06 03:55:08;;;;;;;;;;;;;;;8.99;66.90;101357.28;5010284;28;103139;-48
2022/02/06 03:57:35;;;;;;;;;;;;;;;8.99;67.42;101365.44;5013856;27;103834;-49
2022/02/06 04:00:02;;;;;;;;;;;;;;;8.99;67.18;101362.72;5006114;27;102630;-48
2022/02/06 04:02:28;;;;;;;;;;;;;;;8.99;67.33;101366.25;5017325;27;102360;-47
2022/02/06 04:04:55;;;;;;;;;;;;;;;8.99;67.42;101374.41;5010514;27;102522;-48
2022/02/06 04:07:21;;;;;;;;;;;;;;;8.99;67.23;101379.81;5008800;28;104194;-49
2022/02/06 04:09:56;;;;;;;;;;;;;;;8.99;67.11;101381.72;5008117;28;102625;-48
2022/02/06 04:12:23;;;;;;;;;;;;;;;8.99;67.35;101390.69;5007691;27;102677;-48
2022/02/06 04:15:00;;;;;;;;;;;;;;;8.99;67.46;101387.16;5005420;28;102546;-49
2022/02/06 04:17:28;;;;;;;;;;;;;;;9.00;66.68;101386.06;4999080;28;103901;-48
2022/02/06 04:19:55;;;;;;;;;;;;;;;8.99;66.79;101400.72;5008882;27;102411;-49
2022/02/06 04:22:24;;;;;;;;;;;;;;;8.99;67.42;101395.28;4999733;28;102525;-48
2022/02/06 04:24:50;;;;;;;;;;;;;;;9.00;66.63;101399.66;5008475;28;102363;-49
2022/02/06 04:27:17;;;;;;;;;;;;;;;9.00;67.32;101407.78;5008724;28;103882;-49
2022/02/06 04:29:43;;;;;;;;;;;;;;;9.00;67.02;101421.38;5008363;28;102560;-49
2022/02/06 04:32:10;;;;;;;;;;;;;;;8.99;67.10;101419.72;5000155;28;102796;-48
2022/02/06 04:34:36;;;;;;;;;;;;;;;9.00;67.20;101418.66;5006222;27;102318;-50
2022/02/06 05:22:54;;;;;;;;;;;;;;;8.98;66.88;101423.47;4999368;28;102385;-49
2022/02/06 05:25:37;;;;;;;;;;;;;;;8.99;67.38;101425.16;5006456;28;102360;-48
2022/02/06 05:33:04;;;;;;;;;;;;;;;8.99;67.08;101427.88;5007414;28;102136;-48
2022/02/06 05:35:35;;;;;;;;;;;;;;;8.98;67.17;101435.19;5000889;27;102511;-49
2022/02/06 05:38:01;;;;;;;;;;;;;;;8.98;67.14;101442.50;5003695;27;102193;-48
2022/02/06 05:40:28;;;;;;;;;;;;;;;8.98;67.58;101443.34;4995491;28;103962;-49
2022/02/06 05:43:05;;;;;;;;;;;;;;;8.99;67.15;101441.44;5005926;28;102850;-49
2022/02/06 05:45:31;;;;;;;;;;;;;;;8.99;67.13;101444.16;5007201;28;102730;-48
2022/02/06 05:47:58;;;;;;;;;;;;;;;8.99;67.46;101438.72;4999612;27;102559;-48
2022/02/06 05:50:24;;;;;;;;;;;;;;;8.99;67.67;101444.16;4999802;28;103874;-49
2022/02/06 05:52:51;;;;;;;;;;;;;;;8.99;66.88;101438.72;5002427;28;102544;-48
2022/02/06 05:55:18;;;;;;;;;;;;;;;8.99;67.34;101449.59;5009865;28;102361;-47
2022/02/06 05:57:44;;;;;;;;;;;;;;;8.99;67.33;101455.03;5012990;28;102984;-48
2022/02/06 06:00:11;;;;;;;;;;;;;;;8.99;67.20;101460.44;5002170;28;104027;-48
2022/02/06 06:02:37;;;;;;;;;;;;;;;8.99;67.17;101460.44;5004554;27;102779;-48
2022/02/06 06:05:03;;;;;;;;;;;;;;;8.99;66.95;101466.69;5003929;28;102803;-48
2022/02/06 06:07:30;;;;;;;;;;;;;;;8.99;66.62;101471.31;5010792;27;102564;-48
2022/02/06 06:09:57;;;;;;;;;;;;;;;8.99;67.18;101471.31;5010813;28;103900;-48
2022/02/06 06:12:23;;;;;;;;;;;;;;;8.99;67.05;101477.56;5007934;28;102291;-48
2022/02/06 06:14:49;;;;;;;;;;;;;;;8.99;66.66;101472.13;5004767;28;102466;-48
2022/02/06 06:17:15;;;;;;;;;;;;;;;9.00;66.93;101475.66;5005884;28;102318;-48
2022/02/06 06:19:47;;;;;;;;;;;;;;;9.00;67.36;101478.38;5004264;28;108035;-48
2022/02/06 06:22:18;;;;;;;;;;;;;;;9.01;66.70;101491.69;5000833;28;102576;-48
2022/02/06 06:24:50;;;;;;;;;;;;;;;9.00;67.37;101490.06;5005025;28;103241;-48
2022/02/06 06:27:18;;;;;;;;;;;;;;;9.01;67.11;101485.44;5008750;28;102504;-48
2022/02/06 06:29:44;;;;;;;;;;;;;;;9.01;67.44;101490.88;5005374;27;103899;-47
2022/02/06 06:32:10;;;;;;;;;;;;;;;9.00;67.35;101490.06;5014898;27;102516;-49
2022/02/06 06:34:37;;;;;;;;;;;;;;;9.00;67.03;101484.63;5004029;27;102713;-49
2022/02/06 06:37:04;;;;;;;;;;;;;;;9.01;67.54;101491.69;5009386;27;102818;-48
2022/02/06 06:39:48;;;;;;;;;;;;;;;9.01;67.03;101485.44;5003728;27;104278;-48
2022/02/06 06:42:15;;;;;;;;;;;;;;;9.01;67.13;101496.31;5008102;27;103881;-49
2022/02/06 06:44:44;;;;;;;;;;;;;;;9.00;66.89;101489.25;5010087;28;102142;-50
2022/02/06 06:47:10;;;;;;;;;;;;;;;9.01;67.61;101490.88;5011916;27;102554;-49
2022/02/06 06:49:37;;;;;;;;;;;;;;;9.01;67.14;101491.69;4997041;28;103882;-48
2022/02/06 06:52:04;;;;;;;;;;;;;;;9.02;67.40;101492.56;5007859;27;102630;-49
2022/02/06 06:54:44;;;;;;;;;;;;;;;9.01;67.83;101493.59;5002584;27;102660;-48
2022/02/06 06:57:21;;;;;;;;;;;;;;;9.03;67.17;101494.19;4999999;27;102225;-49
2022/02/06 07:04:50;;;;;;;;;;;;;;;9.02;67.27;101492.56;5010994;27;102493;-48
2022/02/06 07:07:17;;;;;;;;;;;;;;;9.03;67.36;101496.91;5012335;27;102876;-48
2022/02/06 07:09:43;;;;;;;;;;;;;;;9.04;67.14;101490.41;5007041;28;103721;-48
2022/02/06 07:12:12;;;;;;;;;;;;;;;9.03;67.06;101486.88;5018649;27;102414;-48
2022/02/06 07:14:39;;;;;;;;;;;;;;;9.04;67.37;101495.81;5000429;28;102797;-49
2022/02/06 07:17:06;;;;;;;;;;;;;;;9.04;67.43;101495.81;5006409;28;102374;-49
2022/02/06 07:19:32;;;;;;;;;;;;;;;9.04;67.37;101506.69;5008016;27;103944;-48
2022/02/06 07:22:12;;;;;;;;;;;;;;;9.05;67.40;101500.19;5001892;27;102583;-49
2022/02/06 07:24:38;;;;;;;;;;;;;;;9.05;67.35;101501.03;4998508;28;104457;-48
2022/02/06 07:27:16;;;;;;;;;;;;;;;9.05;67.62;101509.19;5001670;28;102241;-48
2022/02/06 07:29:43;;;;;;;;;;;;;;;9.07;67.42;101511.63;5001331;28;104282;-47
2022/02/06 07:32:10;;;;;;;;;;;;;;;9.06;67.25;101510.00;5003282;28;107097;-48
2022/02/06 07:34:36;;;;;;;;;;;;;;;9.08;67.70;101510.56;5002573;27;102390;-48
2022/02/06 07:37:02;;;;;;;;;;;;;;;9.08;67.17;101516.00;4998677;28;102682;-48
2022/02/06 07:39:28;;;;;;;;;;;;;;;9.08;67.65;101519.53;5007919;27;103895;-48
2022/02/06 07:41:54;;;;;;;;;;;;;;;9.08;67.92;101522.25;5010507;27;102166;-49
2022/02/06 07:44:21;;;;;;;;;;;;;;;9.09;67.33;101517.66;5009821;27;102317;-49
2022/02/06 07:46:50;;;;;;;;;;;;;;;9.09;68.10;101520.38;5002454;27;102155;-48
2022/02/06 07:49:17;;;;;;;;;;;;;;;9.09;67.59;101521.19;5008449;28;103564;-49
2022/02/06 07:51:44;;;;;;;;;;;;;;;9.11;67.14;101527.19;5009258;28;102294;-49
2022/02/06 07:54:10;;;;;;;;;;;;;;;9.11;67.94;101523.66;5009546;27;102633;-48
2022/02/06 07:56:36;;;;;;;;;;;;;;;9.11;67.29;101529.09;5009495;27;102801;-49
2022/02/06 07:59:02;;;;;;;;;;;;;;;9.10;66.85;101531.00;5008199;28;104089;-49
2022/02/06 08:01:28;;;;;;;;;;;;;;;9.11;67.43;101535.34;5007791;28;102298;-49
2022/02/06 08:03:54;;;;;;;;;;;;;;;9.11;66.81;101538.06;5006502;28;102830;-49
2022/02/06 08:06:23;;;;;;;;;;;;;;;9.12;66.90;101544.31;5000014;28;102390;-49
2022/02/06 08:08:49;;;;;;;;;;;;;;;9.12;67.39;101541.59;5008745;27;103894;-49
2022/02/06 08:11:16;;;;;;;;;;;;;;;9.12;66.94;101536.16;5008875;28;102383;-48
2022/02/06 08:13:52;;;;;;;;;;;;;;;9.13;67.18;101537.84;5008247;28;102585;-48
2022/02/06 08:16:18;;;;;;;;;;;;;;;9.13;67.28;101537.84;5004325;28;102132;-49
2022/02/06 08:18:45;;;;;;;;;;;;;;;9.13;67.03;101538.66;5008350;27;103882;-48
2022/02/06 08:21:11;;;;;;;;;;;;;;;9.14;67.01;101542.19;5009430;27;102491;-48
2022/02/06 08:23:39;;;;;;;;;;;;;;;9.15;67.61;101543.84;5008924;27;102315;-49
2022/02/06 08:26:07;;;;;;;;;;;;;;;9.15;67.57;101543.84;5003959;28;103386;-49
2022/02/06 08:28:33;;;;;;;;;;;;;;;9.16;66.96;101553.66;4997869;27;104074;-49
2022/02/06 08:30:59;;;;;;;;;;;;;;;9.15;67.07;101546.56;5009156;28;102370;-49
2022/02/06 08:33:25;;;;;;;;;;;;;;;9.16;66.57;101548.22;5007689;28;102116;-49
2022/02/06 08:35:52;;;;;;;;;;;;;;;9.17;66.86;101549.88;5009495;28;102381;-49
2022/02/06 08:38:18;;;;;;;;;;;;;;;9.17;67.08;101549.88;5008488;28;103899;-48
2022/02/06 08:40:45;;;;;;;;;;;;;;;9.18;67.01;101553.41;5008800;28;102978;-49
2022/02/06 08:43:11;;;;;;;;;;;;;;;9.20;66.74;101556.72;5008602;27;102323;-48
2022/02/06 08:45:38;;;;;;;;;;;;;;;9.18;66.78;101550.69;5009468;28;102737;-49
2022/02/06 08:48:04;;;;;;;;;;;;;;;9.19;67.46;101536.84;5006626;28;103857;-48
2022/02/06 08:50:31;;;;;;;;;;;;;;;9.20;67.14;101537.69;5007800;28;102384;-48
2022/02/06 08:53:00;;;;;;;;;;;;;;;9.20;66.51;101538.53;5008237;27;103196;-49
2022/02/06 08:55:27;;;;;;;;;;;;;;;9.21;67.01;101533.91;5008811;28;102300;-49
2022/02/06 08:57:55;;;;;;;;;;;;;;;9.21;66.79;101540.16;5008223;28;103654;-48
2022/02/06 09:00:22;;;;;;;;;;;;;;;9.21;66.50;101542.88;5008488;28;102192;-49
2022/02/06 09:02:49;;;;;;;;;;;;;;;9.21;66.52;101548.31;5006416;28;102459;-49
2022/02/06 09:05:15;;;;;;;;;;;;;;;9.23;66.71;101548.06;5009296;28;102448;-50
2022/02/06 09:07:43;;;;;;;;;;;;;;;9.22;67.17;101540.97;5008594;27;104271;-50
2022/02/06 09:10:10;;;;;;;;;;;;;;;9.23;66.96;101538.03;5006780;27;102523;-49
2022/02/06 09:12:42;;;;;;;;;;;;;;;9.24;66.46;101538.88;5005014;27;102419;-49
2022/02/06 09:15:14;;;;;;;;;;;;;;;9.24;66.38;101539.69;5002260;27;102250;-49
2022/02/06 09:17:40;;;;;;;;;;;;;;;9.25;66.70;101544.03;5005127;28;103937;-49
2022/02/06 09:20:07;;;;;;;;;;;;;;;9.26;67.29;101542.16;5005958;27;102229;-50
2022/02/06 09:22:33;;;;;;;;;;;;;;;9.27;66.45;101532.94;5006521;27;102695;-49
2022/02/06 09:24:59;;;;;;;;;;;;;;;9.26;67.18;101526.66;5006650;28;102662;-49
2022/02/06 09:27:25;;;;;;;;;;;;;;;9.27;67.26;101522.91;4994229;28;103874;-49
2022/02/06 09:29:51;;;;;;;;;;;;;;;9.29;66.68;101515.31;5002362;28;102596;-49
2022/02/06 09:37:10;;;;;;;;;;;;;;;9.29;67.03;101509.88;5006706;28;103983;-50
2022/02/06 09:39:42;;;;;;;;;;;;;;;9.30;66.83;101500.66;5007749;28;102357;-49
2022/02/06 09:42:09;;;;;;;;;;;;;;;9.31;66.20;101501.50;5006769;28;103189;-50
2022/02/06 09:44:35;;;;;;;;;;;;;;;9.30;66.42;101503.38;5008496;27;102582;-49
2022/02/06 09:47:02;;;;;;;;;;;;;;;9.31;66.34;101502.34;5006332;27;103860;-49
2022/02/06 09:49:31;;;;;;;;;;;;;;;9.32;66.43;101495.81;4996481;28;102696;-50
2022/02/06 09:51:57;;;;;;;;;;;;;;;9.33;66.68;101488.50;5006996;27;102428;-50
2022/02/06 09:54:24;;;;;;;;;;;;;;;9.33;66.82;101489.31;5008196;27;102591;-49
2022/02/06 09:56:53;;;;;;;;;;;;;;;9.33;66.81;101486.59;5006056;28;104358;-49
2022/02/06 09:59:21;;;;;;;;;;;;;;;9.34;66.59;101480.13;5006498;28;102424;-49
2022/02/06 10:01:48;;;;;;;;;;;;;;;9.34;66.48;101469.25;5004465;28;102720;-50
2022/02/06 10:04:17;;;;;;;;;;;;;;;9.34;67.17;101463.81;5011678;27;102173;-50
2022/02/06 10:06:49;;;;;;;;;;;;;;;9.35;66.37;101454.59;5009610;27;103976;-50
2022/02/06 10:09:18;;;;;;;;;;;;;;;9.36;67.24;101461.66;5010543;28;102148;-50
2022/02/06 10:11:45;;;;;;;;;;;;;;;9.36;66.69;101455.41;5003653;28;102445;-49
2022/02/06 10:14:11;;;;;;;;;;;;;;;9.36;66.42;101450.78;5003834;28;102155;-49
2022/02/06 10:16:39;;;;;;;;;;;;;;;9.36;66.22;101450.78;5009819;27;103945;-49
2022/02/06 10:19:05;;;;;;;;;;;;;;;9.36;66.39;101455.41;5010287;27;102105;-50
2022/02/06 10:21:32;;;;;;;;;;;;;;;9.36;66.22;101445.38;5010263;28;102479;-49
2022/02/06 10:24:09;;;;;;;;;;;;;;;9.36;67.05;101445.38;5011287;28;102526;-49
2022/02/06 10:31:47;;;;;;;;;;;;;;;9.36;66.83;101445.38;5009055;27;102605;-49
2022/02/06 10:34:18;;;;;;;;;;;;;;;9.36;66.76;101445.38;5009367;28;102511;-49
2022/02/06 10:36:44;;;;;;;;;;;;;;;9.35;66.10;101441.00;5006628;27;103988;-49
2022/02/06 10:39:15;;;;;;;;;;;;;;;9.36;66.64;101442.66;5007433;27;103162;-49
2022/02/06 10:41:43;;;;;;;;;;;;;;;9.36;66.04;101445.38;5008344;27;105434;-50
2022/02/06 10:44:09;;;;;;;;;;;;;;;9.35;66.40;101435.56;5011449;27;102557;-50
2022/02/06 10:46:42;;;;;;;;;;;;;;;9.37;66.32;101451.63;5002814;27;103887;-49
2022/02/06 10:49:12;;;;;;;;;;;;;;;9.35;66.52;101438.28;5009042;27;102420;-49
2022/02/06 10:51:41;;;;;;;;;;;;;;;9.35;66.05;101432.88;5007742;27;102487;-49
2022/02/06 10:54:08;;;;;;;;;;;;;;;9.36;66.64;101439.94;5009642;27;102791;-49
2022/02/06 10:56:40;;;;;;;;;;;;;;;9.35;66.44;101438.28;4996503;28;103747;-50
2022/02/06 10:59:06;;;;;;;;;;;;;;;9.35;66.48;101424.72;5005835;27;102156;-49
2022/02/06 11:01:36;;;;;;;;;;;;;;;9.35;66.28;101415.75;4998529;28;102210;-49
2022/02/06 11:04:08;;;;;;;;;;;;;;;9.36;65.86;101417.38;5007909;27;102478;-49
2022/02/06 11:06:47;;;;;;;;;;;;;;;9.36;65.82;101411.94;5008956;28;104135;-50
2022/02/06 11:09:24;;;;;;;;;;;;;;;9.34;65.78;101406.78;5010481;28;102538;-54
2022/02/06 11:11:52;;;;;;;;;;;;;;;9.33;65.81;101405.09;5009307;28;102203;-49
2022/02/06 11:14:21;;;;;;;;;;;;;;;9.34;66.18;101404.06;5003165;27;103021;-49
2022/02/06 11:16:49;;;;;;;;;;;;;;;9.34;65.75;101404.06;5010513;28;103911;-49
2022/02/06 11:19:17;;;;;;;;;;;;;;;9.35;66.13;101404.88;5010621;27;102233;-49
2022/02/06 11:21:43;;;;;;;;;;;;;;;9.34;66.60;101404.06;5003342;27;102516;-49
2022/02/06 11:24:17;;;;;;;;;;;;;;;9.34;66.48;101397.78;5005992;28;102506;-49
2022/02/06 11:26:44;;;;;;;;;;;;;;;9.35;66.37;101399.44;5008528;28;108407;-49
2022/02/06 11:29:11;;;;;;;;;;;;;;;9.34;66.17;101404.06;4997008;28;103652;-49
2022/02/06 11:31:38;;;;;;;;;;;;;;;9.34;65.90;101406.78;5007079;27;102503;-49
2022/02/06 11:34:05;;;;;;;;;;;;;;;9.34;66.57;101400.50;5010333;28;102512;-49
2022/02/06 11:45:05;;;;;;;;;;;;;;;9.33;66.35;101391.53;5011034;27;102046;-49
2022/02/06 11:47:36;;;;;;;;;;;;;;;9.34;65.79;101397.78;5009429;27;102943;-49
2022/02/06 11:50:08;;;;;;;;;;;;;;;9.34;66.38;101398.63;5008426;28;102501;-49
2022/02/06 11:52:50;;;;;;;;;;;;;;;9.33;66.16;101396.97;5009750;27;102423;-48
2022/02/06 11:55:33;;;;;;;;;;;;;;;9.34;66.16;101392.34;5003230;27;102768;-49
2022/02/06 11:58:23;;;;;;;;;;;;;;;9.33;66.17;101388.81;5009470;27;103884;-49
2022/02/06 12:01:04;;;;;;;;;;;;;;;9.32;65.81;101381.75;4999851;28;102449;-49
2022/02/06 12:03:49;;;;;;;;;;;;;;;9.33;65.79;101386.09;5006877;27;102417;-49
2022/02/06 12:06:15;;;;;;;;;;;;;;;9.33;65.53;101385.28;5004372;27;102274;-49
2022/02/06 12:08:42;;;;;;;;;;;;;;;9.33;66.63;101383.38;5008654;27;104073;-49
2022/02/06 12:11:10;;;;;;;;;;;;;;;9.32;65.84;101384.47;5009292;28;102564;-49
2022/02/06 12:13:38;;;;;;;;;;;;;;;9.33;66.36;101385.28;5007419;28;102388;-49
2022/02/06 12:16:06;;;;;;;;;;;;;;;9.33;66.09;101380.66;4996394;28;102417;-50
2022/02/06 12:18:35;;;;;;;;;;;;;;;9.34;65.64;101381.47;5008446;28;103857;-49
2022/02/06 12:21:09;;;;;;;;;;;;;;;9.32;65.90;101378.19;5009942;27;102270;-49
2022/02/06 12:23:39;;;;;;;;;;;;;;;9.32;65.89;101379.03;5007075;27;102633;-49
2022/02/06 12:26:20;;;;;;;;;;;;;;;9.33;65.99;101377.13;5008676;28;102477;-49
2022/02/06 12:28:47;;;;;;;;;;;;;;;9.31;66.03;101371.94;5023807;27;103718;-49
2022/02/06 12:31:27;;;;;;;;;;;;;;;9.32;66.51;101376.31;5008737;28;102731;-49
2022/02/06 12:34:11;;;;;;;;;;;;;;;9.32;65.94;101370.88;5003849;28;103257;-49
2022/02/06 12:39:25;;;;;;;;;;;;;;;9.31;66.12;101366.53;5008064;28;107743;-49
2022/02/06 12:41:51;;;;;;;;;;;;;;;9.31;66.14;101361.09;5009523;27;102529;-50
2022/02/06 12:44:18;;;;;;;;;;;;;;;9.32;66.13;101360.00;5008925;27;102077;-49
2022/02/06 12:46:44;;;;;;;;;;;;;;;9.32;66.24;101365.44;5008979;28;106499;-49
2022/02/06 12:49:10;;;;;;;;;;;;;;;9.32;66.57;101357.28;5008070;28;103887;-49
2022/02/06 12:51:36;;;;;;;;;;;;;;;9.32;66.15;101360.00;4996346;28;102660;-49
2022/02/06 12:54:05;;;;;;;;;;;;;;;9.31;66.35;101361.09;5007035;27;102925;-49
2022/02/06 12:56:33;;;;;;;;;;;;;;;9.31;66.25;101355.66;5005770;28;102380;-49
2022/02/06 12:58:59;;;;;;;;;;;;;;;9.32;66.52;101357.28;5004396;27;104005;-49
2022/02/06 13:01:34;;;;;;;;;;;;;;;9.31;66.38;101352.94;5002963;28;102634;-49
2022/02/06 13:04:00;;;;;;;;;;;;;;;9.31;66.10;101347.50;5007803;28;102451;-49
2022/02/06 13:06:33;;;;;;;;;;;;;;;9.31;66.07;101344.78;5007846;27;102446;-49
2022/02/06 13:08:59;;;;;;;;;;;;;;;9.31;66.56;101350.22;5000344;28;104015;-49
2022/02/06 13:11:35;;;;;;;;;;;;;;;9.31;66.42;101342.06;5006258;27;102605;-49
2022/02/06 13:14:18;;;;;;;;;;;;;;;9.32;66.43;101345.59;4994056;27;104309;-49
2022/02/06 13:22:12;;;;;;;;;;;;;;;9.31;66.51;101338.53;4992457;28;102462;-49
2022/02/06 13:27:54;;;;;;;;;;;;;;;9.32;66.03;101337.47;4994811;28;103099;-49
2022/02/06 13:30:42;;;;;;;;;;;;;;;9.32;66.63;101329.31;5006048;27;107906;-49
2022/02/06 13:33:15;;;;;;;;;;;;;;;9.32;66.60;101330.13;5007375;28;102407;-49
2022/02/06 13:35:54;;;;;;;;;;;;;;;9.32;66.16;101324.69;5007540;27;102202;-49
2022/02/06 13:38:21;;;;;;;;;;;;;;;9.32;66.84;101323.88;5005858;27;102687;-49
2022/02/06 13:40:50;;;;;;;;;;;;;;;9.32;66.79;101326.59;5003251;28;103509;-49
2022/02/06 13:43:24;;;;;;;;;;;;;;;9.31;66.57;101320.34;5007553;28;102703;-49
2022/02/06 13:45:54;;;;;;;;;;;;;;;9.31;66.32;101323.06;4998886;28;102345;-48
2022/02/06 13:48:21;;;;;;;;;;;;;;;9.32;66.70;101313.00;5005642;28;102671;-49
2022/02/06 13:50:53;;;;;;;;;;;;;;;9.32;66.71;101318.44;5004597;28;104013;-48
2022/02/06 13:53:21;;;;;;;;;;;;;;;9.31;66.05;101306.75;5002466;28;102637;-48
2022/02/06 13:55:48;;;;;;;;;;;;;;;9.33;66.72;101314.66;5001450;27;102770;-49
2022/02/06 13:58:14;;;;;;;;;;;;;;;9.30;66.87;101305.09;4995935;28;102593;-49
2022/02/06 14:00:55;;;;;;;;;;;;;;;9.32;66.05;101302.97;5001713;27;103380;-49
2022/02/06 14:03:22;;;;;;;;;;;;;;;9.31;66.40;101292.38;5006525;27;102437;-50
2022/02/06 14:05:50;;;;;;;;;;;;;;;9.31;66.21;101293.19;4998329;28;102566;-49
2022/02/06 14:08:20;;;;;;;;;;;;;;;9.32;66.25;101289.38;5008065;27;102237;-50
2022/02/06 14:11:02;;;;;;;;;;;;;;;9.31;66.29;101290.47;5004593;28;102961;-49
2022/02/06 14:13:28;;;;;;;;;;;;;;;9.31;66.84;101290.47;4998671;28;102793;-49
2022/02/06 14:16:06;;;;;;;;;;;;;;;9.31;66.32;101285.03;5006058;27;102711;-49
2022/02/06 14:18:32;;;;;;;;;;;;;;;9.31;66.11;101289.66;5005552;28;102642;-49
2022/02/06 14:20:59;;;;;;;;;;;;;;;9.31;65.93;101285.03;5005019;27;103973;-49
2022/02/06 14:23:26;;;;;;;;;;;;;;;9.32;66.24;101292.09;4995230;27;102185;-49
2022/02/06 14:25:52;;;;;;;;;;;;;;;9.31;66.34;101290.47;5002804;28;102401;-49
2022/02/06 14:28:19;;;;;;;;;;;;;;;9.32;66.83;101294.00;5000586;28;102781;-49
2022/02/06 14:30:46;;;;;;;;;;;;;;;9.33;66.46;101301.06;5000384;28;103962;-49
2022/02/06 14:33:19;;;;;;;;;;;;;;;9.31;66.64;101301.31;5007051;28;102667;-49
2022/02/06 14:35:48;;;;;;;;;;;;;;;9.32;66.62;101296.72;5001113;27;102732;-49
2022/02/06 14:38:22;;;;;;;;;;;;;;;9.31;66.26;101295.06;5005330;28;102599;-50
2022/02/06 14:41:04;;;;;;;;;;;;;;;9.31;66.82;101300.50;5003726;27;103895;-49
2022/02/06 14:43:31;;;;;;;;;;;;;;;9.31;66.09;101290.47;5001873;28;102809;-49
2022/02/06 14:45:57;;;;;;;;;;;;;;;9.32;66.86;101299.44;5004204;27;102507;-49
2022/02/06 14:48:26;;;;;;;;;;;;;;;9.31;66.33;101290.47;5002350;28;102508;-50
2022/02/06 14:50:52;;;;;;;;;;;;;;;9.32;66.58;101297.53;4998898;28;104173;-50
2022/02/06 14:53:19;;;;;;;;;;;;;;;9.31;66.62;101285.03;5010762;27;102240;-49
2022/02/06 14:55:47;;;;;;;;;;;;;;;9.32;66.23;101283.13;4997944;28;102253;-49
2022/02/06 14:58:13;;;;;;;;;;;;;;;9.31;66.90;101276.88;5008016;27;102658;-50
2022/02/06 15:00:39;;;;;;;;;;;;;;;9.31;66.49;101279.59;5000192;27;103899;-49
2022/02/06 15:03:05;;;;;;;;;;;;;;;9.31;66.97;101285.03;5005838;27;102716;-49
2022/02/06 15:05:33;;;;;;;;;;;;;;;9.31;66.07;101284.22;5000283;28;105078;-49
2022/02/06 15:07:59;;;;;;;;;;;;;;;9.32;66.02;101286.66;5004708;27;102932;-49
2022/02/06 15:10:25;;;;;;;;;;;;;;;9.32;66.50;101292.09;5010168;27;103981;-49
2022/02/06 15:12:51;;;;;;;;;;;;;;;9.31;66.77;101290.47;4996340;28;103707;-49
2022/02/06 15:15:19;;;;;;;;;;;;;;;9.31;66.27;101284.22;5005840;28;102343;-50
2022/02/06 15:17:45;;;;;;;;;;;;;;;9.32;66.46;101294.00;4999007;27;102411;-49
2022/02/06 15:20:11;;;;;;;;;;;;;;;9.31;66.79;101289.66;5002784;27;103837;-49
2022/02/06 15:22:39;;;;;;;;;;;;;;;9.31;66.90;101290.47;4997639;27;103148;-49
2022/02/06 15:25:07;;;;;;;;;;;;;;;9.32;66.21;101288.56;5003980;27;104083;-50